Flight Track Log - Related Links

Times and Time Zones

All times are in EST time to prevent confusion due to time zone crossing. See the FDX1479 flight status page for this flight to view local times or setup timezone preferences in your user account.

Time Position Orientation Groundspeed Altitude Reporting Facility
EST Latitude Longitude Course Direction KTS MPH feet Rate Location/Type
Fri 05:42:37 AM 35.0264 -89.9869 185° South 135 155 1,400  Level FAA TRACON SMA TRACON (SMA)
Fri 05:43:17 AM 34.9983 -89.9900 187° South 162 186 2,700 2,700 Climbing FAA TRACON SMA TRACON (SMA)
Fri 05:43:57 AM 34.9553 -89.9961 225° Southwest 222 255 5,000 3,675 Climbing FAA TRACON SMA TRACON (SMA)
Fri 05:44:37 AM 34.9267 -90.0306 228° Southwest 233 268 7,600 4,200 Climbing FAA TRACON SMA TRACON (SMA)
Fri 05:45:17 AM 34.8953 -90.0736 228° Southwest 243 280 10,600 3,075 Climbing FAA TRACON SMA TRACON (SMA)
Fri 05:45:57 AM 34.8597 -90.1219 227° Southwest 294 338 11,700 2,775 Climbing FAA TRACON SMA TRACON (SMA)
Fri 05:46:37 AM 34.8164 -90.1786 227° Southwest 336 387 14,300 3,975 Climbing FAA TRACON SMA TRACON (SMA)
Fri 05:47:17 AM 34.7714 -90.2383 233° Southwest 346 398 17,000 3,949 Climbing FAA TRACON SMA TRACON (SMA)
Fri 05:47:56 AM 34.7314 -90.3028 234° Southwest 360 414 19,500 3,600 Climbing FAA TRACON SMA TRACON (SMA)
Fri 05:48:37 AM 34.6908 -90.3700 233° Southwest 365 420 21,800 3,075 Climbing FAA TRACON SMA TRACON (SMA)
Fri 05:49:16 AM 34.6533 -90.4303 233° Southwest 370 426 23,600 2,550 Climbing FAA TRACON SMA TRACON (SMA)
Fri 05:49:57 AM 34.6075 -90.5033 233° Southwest 392 451 25,200 2,889 Climbing FAA TRACON SMA TRACON (SMA)
Fri 05:50:37 AM 34.5619 -90.5767 233° Southwest 393 452 27,500 2,100 Climbing FAA TRACON SMA TRACON (SMA)
Fri 05:51:17 AM 34.5219 -90.6406 233° Southwest 387 445 28,000 375 Climbing FAA TRACON SMA TRACON (SMA)
Fri 05:51:57 AM 34.4781 -90.7117 233° Southwest 383 441 28,000  Level FAA TRACON SMA TRACON (SMA)
Fri 05:52:37 AM 34.4586 -90.7431 233° Southwest 381 438 28,000  Level FAA TRACON SMA TRACON (SMA)
Fri 05:54:03 AM 34.3467 -90.9206 232° Southwest 379 436 28,000  Level Memphis Center
Fri 05:55:03 AM 34.2817 -91.0208 233° Southwest 384 442 28,000  Level Memphis Center
Fri 05:56:03 AM 34.2122 -91.1308 233° Southwest 384 442 28,000  Level Memphis Center
Fri 05:57:03 AM 34.1489 -91.2306 231° Southwest 389 448 28,000  Level Memphis Center
Fri 05:58:03 AM 34.0833 -91.3278 232° Southwest 389 448 28,000  Level Memphis Center
Fri 05:59:03 AM 34.0200 -91.4272 232° Southwest 383 441 28,000  Level Memphis Center
Fri 06:00:03 AM 33.9564 -91.5267 232° Southwest 383 441 28,000  Level Memphis Center
Fri 06:01:03 AM 33.8931 -91.6233 234° Southwest 383 441 28,000  Level Memphis Center
Fri 06:02:03 AM 33.8336 -91.7225 231° Southwest 383 441 28,000  Level Memphis Center
Fri 06:03:48 AM 33.7258 -91.8819 231° Southwest 361 415 28,000  Level Fort Worth Center
Fri 06:04:48 AM 33.6633 -91.9758 235° Southwest 361 415 28,000  Level Fort Worth Center
Fri 06:05:48 AM 33.6050 -92.0742 231° Southwest 361 415 28,000  Level Fort Worth Center
Fri 06:06:48 AM 33.5400 -92.1703 230° Southwest 361 415 28,000  Level Fort Worth Center
Fri 06:07:48 AM 33.4769 -92.2611 233° Southwest 361 415 28,000  Level Fort Worth Center
Fri 06:08:48 AM 33.4164 -92.3569 231° Southwest 361 415 28,000  Level Fort Worth Center
Fri 06:09:48 AM 33.3533 -92.4500 232° Southwest 361 415 28,000  Level Fort Worth Center
Fri 06:10:48 AM 33.2903 -92.5478 231° Southwest 361 415 28,000  Level Fort Worth Center
Fri 06:11:48 AM 33.2292 -92.6381 230° Southwest 361 415 28,000 -550 Level Fort Worth Center
Fri 06:12:48 AM 33.1636 -92.7308 232° Southwest 361 415 26,900 -1,800 Descending Fort Worth Center
Fri 06:13:48 AM 33.1064 -92.8183 231° Southwest 356 410 24,400 -2,550 Descending Fort Worth Center
Fri 06:14:48 AM 33.0469 -92.9056 231° Southwest 350 403 21,800 -2,650 Descending Fort Worth Center
Fri 06:15:48 AM 32.9875 -92.9928 233° Southwest 350 403 19,100 -2,700 Descending Fort Worth Center
Fri 06:16:48 AM 32.9300 -93.0822 230° Southwest 350 403 16,400 -2,750 Descending Fort Worth Center
Fri 06:17:48 AM 32.8703 -93.1667 232° Southwest 345 397 13,600 -1,750 Descending Fort Worth Center
Fri 06:18:48 AM 32.8147 -93.2508 238° Southwest 340 391 12,900 -1,200 Descending Fort Worth Center
Fri 06:19:48 AM 32.7675 -93.3397 242° Southwest 329 379 11,200 -1,500 Descending Fort Worth Center
Fri 06:20:48 AM 32.7286 -93.4278 241° Southwest 321 369 9,900 -1,700 Descending Fort Worth Center
Fri 06:21:48 AM 32.6914 -93.5083 249° West 277 319 7,800 -1,750 Descending Fort Worth Center
Fri 06:22:48 AM 32.6667 -93.5836 250° West 251 289 6,400 -1,200 Descending Fort Worth Center
Fri 06:23:48 AM 32.6439 -93.6586 252° West 246 283 5,400 -1,050 Descending Fort Worth Center
Fri 06:24:48 AM 32.6231 -93.7333 256° West 246 283 4,300 -1,150 Descending Fort Worth Center
Fri 06:25:48 AM 32.6083 -93.8056 259° West 241 277 3,100 -950 Descending Fort Worth Center
Fri 06:26:48 AM 32.5978 -93.8675 235° Southwest 215 247 2,400 -550 Descending Fort Worth Center
Fri 06:27:48 AM 32.5739 -93.9078 176° South 164 189 2,000 -200 Descending Fort Worth Center
Fri 06:28:48 AM 32.5339 -93.9044 148° Southeast 135 155 2,000 -397 Level Fort Worth Center
Fri 06:30:04 AM 32.4872 -93.8694 142° Southeast 151 174 1,100 -706 Descending Fort Worth Center
Fri 06:31:04 AM 32.4592 -93.8433 142° Southeast 133 153 400 -700 Descending Fort Worth Center

Login

Don't have an account? Register now (free) for customized features, flight alerts, and more!